createdAt,value
2022-10-09T00:02:19.471Z,64.60
2022-10-09T00:04:47.614Z,64.80
2022-10-09T00:07:17.065Z,65.00
2022-10-09T00:09:45.159Z,65.30
2022-10-09T00:12:13.227Z,65.30
2022-10-09T00:14:41.303Z,65.30
2022-10-09T00:17:09.491Z,65.40
2022-10-09T00:19:37.636Z,65.50
2022-10-09T00:22:05.746Z,65.80
2022-10-09T00:24:35.230Z,65.90
2022-10-09T00:27:03.336Z,65.90
2022-10-09T00:29:31.766Z,65.70
2022-10-09T00:31:59.870Z,65.20
2022-10-09T00:34:27.961Z,64.80
2022-10-09T00:36:56.003Z,64.60
2022-10-09T00:39:24.109Z,64.70
2022-10-09T00:41:53.575Z,64.70
2022-10-09T00:44:49.020Z,65.00
2022-10-09T00:47:21.640Z,65.80
2022-10-09T00:49:50.766Z,65.50
2022-10-09T00:52:19.002Z,65.50
2022-10-09T00:54:47.272Z,65.50
2022-10-09T00:57:16.839Z,65.50
2022-10-09T00:59:45.151Z,65.70
2022-10-09T01:02:13.320Z,65.50
2022-10-09T01:04:41.452Z,65.50
2022-10-09T01:07:23.621Z,65.30
2022-10-09T01:09:57.980Z,65.80
2022-10-09T01:12:37.171Z,65.60
2022-10-09T01:15:13.467Z,65.80
2022-10-09T01:17:46.736Z,65.80
2022-10-09T01:20:27.928Z,65.70
2022-10-09T01:23:20.727Z,65.60
2022-10-09T01:25:59.770Z,65.60
2022-10-09T01:28:31.197Z,65.60
2022-10-09T01:31:02.690Z,65.50
2022-10-09T01:33:33.009Z,65.40
2022-10-09T01:36:01.943Z,65.60
2022-10-09T01:38:31.602Z,65.60
2022-10-09T01:41:00.217Z,65.50
2022-10-09T01:43:29.664Z,65.30
2022-10-09T01:46:20.189Z,65.40
2022-10-09T01:48:52.384Z,66.30
2022-10-09T01:51:26.287Z,65.70
2022-10-09T01:54:02.101Z,65.90
2022-10-09T01:56:34.502Z,65.80
2022-10-09T01:59:12.300Z,66.00
2022-10-09T02:01:43.837Z,66.30
2022-10-09T02:04:14.268Z,66.00
2022-10-09T02:06:43.903Z,66.20
2022-10-09T02:09:16.552Z,66.30
2022-10-09T02:11:50.548Z,66.40
2022-10-09T02:14:20.132Z,66.40
2022-10-09T02:16:51.039Z,66.20
2022-10-09T02:19:24.126Z,66.20
2022-10-09T02:21:56.735Z,66.40
2022-10-09T02:24:25.651Z,66.40
2022-10-09T02:26:57.399Z,66.30
2022-10-09T02:29:26.992Z,66.40
2022-10-09T02:31:55.102Z,66.60
2022-10-09T02:34:23.263Z,66.40
2022-10-09T02:36:52.239Z,66.30
2022-10-09T02:39:20.357Z,66.60
2022-10-09T02:41:48.416Z,66.70
2022-10-09T02:44:16.488Z,66.80
2022-10-09T02:46:46.032Z,67.00
2022-10-09T02:49:14.151Z,67.00
2022-10-09T02:51:42.266Z,66.90
2022-10-09T02:54:11.246Z,66.80
2022-10-09T02:56:39.418Z,66.90
2022-10-09T02:59:07.732Z,67.00
2022-10-09T03:01:35.873Z,67.00
2022-10-09T03:04:05.877Z,66.90
2022-10-09T03:06:35.608Z,66.80
2022-10-09T03:09:03.722Z,66.80
2022-10-09T03:11:31.846Z,67.00
2022-10-09T03:13:59.925Z,67.00
2022-10-09T03:16:28.556Z,66.80
2022-10-09T03:18:58.195Z,66.60
2022-10-09T03:21:29.099Z,66.60
2022-10-09T03:23:57.378Z,66.90
2022-10-09T03:26:27.290Z,66.70
2022-10-09T03:28:56.299Z,66.80
2022-10-09T03:31:50.506Z,66.90
2022-10-09T03:34:15.345Z,67.20
2022-10-09T03:36:44.860Z,67.10
2022-10-09T03:39:13.053Z,67.10
2022-10-09T03:41:41.123Z,66.90
2022-10-09T03:44:09.193Z,66.90
2022-10-09T03:46:37.350Z,67.00
2022-10-09T03:49:05.495Z,67.80
2022-10-09T03:51:33.593Z,67.30
2022-10-09T03:54:03.029Z,67.30
2022-10-09T03:56:31.091Z,67.30
2022-10-09T03:58:59.147Z,67.10
2022-10-09T04:01:27.329Z,67.10
2022-10-09T04:03:55.543Z,67.00
2022-10-09T04:06:23.577Z,67.00
2022-10-09T04:08:51.675Z,67.00
2022-10-09T04:11:21.271Z,66.90
2022-10-09T04:13:49.399Z,66.90
2022-10-09T04:16:17.767Z,66.90
2022-10-09T04:18:47.769Z,66.90
2022-10-09T04:21:15.892Z,66.60
2022-10-09T04:23:44.017Z,66.30
2022-10-09T04:26:13.726Z,66.30
2022-10-09T04:28:43.698Z,66.50
2022-10-09T04:31:12.062Z,66.70
2022-10-09T04:33:40.184Z,66.90
2022-10-09T04:36:08.606Z,66.80
2022-10-09T04:38:36.652Z,67.20
2022-10-09T04:41:06.777Z,67.40
2022-10-09T04:43:35.997Z,67.70
2022-10-09T04:46:07.884Z,67.80
2022-10-09T04:48:39.575Z,68.20
2022-10-09T04:51:08.323Z,68.30
2022-10-09T04:53:37.559Z,68.00
2022-10-09T04:56:07.932Z,67.80
2022-10-09T04:58:37.265Z,67.70
2022-10-09T05:01:10.169Z,67.60
2022-10-09T05:03:38.361Z,67.70
2022-10-09T05:06:08.631Z,67.50
2022-10-09T05:08:37.323Z,67.70
2022-10-09T05:11:07.410Z,67.70
2022-10-09T05:13:37.560Z,67.80
2022-10-09T05:16:08.909Z,67.80
2022-10-09T05:18:37.601Z,67.80
2022-10-09T05:21:06.277Z,67.70
2022-10-09T05:23:35.642Z,67.70
2022-10-09T05:26:06.845Z,67.60
2022-10-09T05:28:35.454Z,67.50
2022-10-09T05:31:04.431Z,67.50
2022-10-09T05:33:34.451Z,67.50
2022-10-09T05:36:04.879Z,67.50
2022-10-09T05:38:34.424Z,67.40
2022-10-09T05:41:04.750Z,67.40
2022-10-09T05:43:35.145Z,67.30
2022-10-09T05:46:07.386Z,67.30
2022-10-09T05:48:37.560Z,67.50
2022-10-09T05:51:10.820Z,67.50
2022-10-09T05:53:38.920Z,67.60
2022-10-09T05:56:18.714Z,67.60
2022-10-09T05:58:52.482Z,67.50
2022-10-09T06:01:20.810Z,67.30
2022-10-09T06:03:55.190Z,67.20
2022-10-09T06:06:24.910Z,67.70
2022-10-09T06:08:53.395Z,67.60
2022-10-09T06:11:24.032Z,67.50
2022-10-09T06:13:53.633Z,67.50
2022-10-09T06:16:21.751Z,67.80
2022-10-09T06:18:49.881Z,67.90
2022-10-09T06:21:19.319Z,68.00
2022-10-09T06:23:50.516Z,68.10
2022-10-09T06:26:19.310Z,68.20
2022-10-09T06:28:48.380Z,68.20
2022-10-09T06:31:18.314Z,68.50
2022-10-09T06:33:47.754Z,68.60
2022-10-09T06:36:18.030Z,69.30
2022-10-09T06:38:47.823Z,68.60
2022-10-09T06:41:18.043Z,68.70
2022-10-09T06:43:50.481Z,68.70
2022-10-09T06:46:18.687Z,68.40
2022-10-09T06:48:46.985Z,68.00
2022-10-09T06:51:16.382Z,67.70
2022-10-09T06:53:48.212Z,67.50
2022-10-09T06:56:17.368Z,67.20
2022-10-09T06:58:45.974Z,66.90
2022-10-09T07:01:15.734Z,66.50
2022-10-09T07:03:45.506Z,66.20
2022-10-09T07:06:17.194Z,65.60
2022-10-09T07:08:48.638Z,65.40
2022-10-09T07:11:21.527Z,65.10
2022-10-09T07:13:52.796Z,64.80
2022-10-09T07:16:23.875Z,64.50
2022-10-09T07:18:53.078Z,64.10
2022-10-09T07:21:27.201Z,63.70
2022-10-09T07:23:57.722Z,63.40
2022-10-09T07:26:31.690Z,63.00
2022-10-09T07:29:04.500Z,62.70
2022-10-09T07:31:33.591Z,62.50
2022-10-09T07:34:05.310Z,62.30
2022-10-09T07:36:35.228Z,62.10
2022-10-09T07:39:09.288Z,61.60
2022-10-09T07:41:38.589Z,61.10
2022-10-09T07:44:14.650Z,60.90
2022-10-09T07:46:43.187Z,60.30
2022-10-09T07:49:12.321Z,60.00
2022-10-09T07:51:40.428Z,59.50
2022-10-09T07:54:09.842Z,58.90
2022-10-09T07:56:39.029Z,57.80
2022-10-09T07:59:08.413Z,57.30
2022-10-09T08:01:37.936Z,56.70
2022-10-09T08:04:07.020Z,56.00
2022-10-09T08:06:35.873Z,55.80
2022-10-09T08:09:06.148Z,55.40
2022-10-09T08:11:36.178Z,54.80
2022-10-09T08:14:04.320Z,54.40
2022-10-09T08:16:33.454Z,54.10
2022-10-09T08:19:02.842Z,53.60
2022-10-09T08:21:32.883Z,53.20
2022-10-09T08:24:01.874Z,53.20
2022-10-09T08:26:31.381Z,53.00
2022-10-09T08:29:02.529Z,52.60
2022-10-09T08:31:31.818Z,52.20
2022-10-09T08:34:02.787Z,52.20
2022-10-09T08:36:31.651Z,51.70
2022-10-09T08:39:00.053Z,51.30
2022-10-09T08:41:43.176Z,51.10
2022-10-09T08:44:17.907Z,49.60
2022-10-09T08:46:59.539Z,49.70
2022-10-09T08:49:32.919Z,48.60
2022-10-09T08:52:10.054Z,48.70
2022-10-09T08:54:40.392Z,48.10
2022-10-09T08:57:13.500Z,47.90
2022-10-09T08:59:42.896Z,47.10
2022-10-09T09:02:28.500Z,49.60
2022-10-09T09:05:10.060Z,46.50
2022-10-09T09:07:46.296Z,46.10
2022-10-09T09:10:26.009Z,45.90
2022-10-09T09:12:58.587Z,45.50
2022-10-09T09:15:37.059Z,45.30
2022-10-09T09:18:17.863Z,45.00
2022-10-09T09:20:52.538Z,44.80
2022-10-09T09:23:25.081Z,44.50
2022-10-09T09:25:53.160Z,44.20
2022-10-09T09:28:25.809Z,44.00
2022-10-09T09:30:59.576Z,43.30
2022-10-09T09:33:43.594Z,43.20
2022-10-09T09:36:22.155Z,43.10
2022-10-09T09:41:41.909Z,42.60
2022-10-09T09:44:12.431Z,42.40
2022-10-09T09:46:43.043Z,42.20
2022-10-09T09:49:19.592Z,42.00
2022-10-09T09:51:49.631Z,41.50
2022-10-09T09:54:21.558Z,41.90
2022-10-09T09:57:12.106Z,41.70
2022-10-09T09:59:41.291Z,41.30
2022-10-09T10:02:16.094Z,41.10
2022-10-09T10:04:52.653Z,40.80
2022-10-09T10:07:35.288Z,41.10
2022-10-09T10:10:09.025Z,42.10
2022-10-09T10:12:42.280Z,42.20
2022-10-09T10:15:19.979Z,41.70
2022-10-09T10:17:50.060Z,40.80
2022-10-09T10:20:18.989Z,41.40
2022-10-09T10:22:52.531Z,40.80
2022-10-09T10:25:23.204Z,40.40
2022-10-09T10:27:53.766Z,40.30
2022-10-09T10:30:22.016Z,40.30
2022-10-09T10:32:58.039Z,40.40
2022-10-09T10:35:29.415Z,39.60
2022-10-09T10:38:05.083Z,40.00
2022-10-09T10:40:37.835Z,40.10
2022-10-09T10:43:15.965Z,40.40
2022-10-09T10:45:55.618Z,39.60
2022-10-09T10:48:28.759Z,38.20
2022-10-09T10:51:31.924Z,38.30
2022-10-09T10:54:11.913Z,38.20
2022-10-09T10:56:46.410Z,37.30
2022-10-09T10:59:37.480Z,37.30
2022-10-09T11:02:47.795Z,36.40
2022-10-09T11:05:28.342Z,36.00
2022-10-09T11:08:11.274Z,35.40
2022-10-09T11:10:54.220Z,35.70
2022-10-09T11:13:27.816Z,36.00
2022-10-09T11:16:18.034Z,36.20
2022-10-09T11:18:57.874Z,35.80
2022-10-09T11:21:46.545Z,35.30
2022-10-09T11:24:55.263Z,34.90
2022-10-09T11:27:27.495Z,36.10
2022-10-09T11:30:00.148Z,35.00
2022-10-09T11:32:31.641Z,35.10
2022-10-09T11:35:02.978Z,34.60
2022-10-09T11:37:36.228Z,35.00
2022-10-09T11:40:09.162Z,34.50
2022-10-09T11:42:37.068Z,34.90
2022-10-09T11:45:20.140Z,36.90
2022-10-09T11:48:01.187Z,35.20
2022-10-09T11:50:40.165Z,34.90
2022-10-09T11:53:13.163Z,34.90
2022-10-09T11:55:42.771Z,35.00
2022-10-09T11:58:21.353Z,35.20
2022-10-09T12:00:51.410Z,34.70
2022-10-09T12:03:33.547Z,34.50
2022-10-09T12:06:08.913Z,33.60
2022-10-09T12:08:40.419Z,33.60
2022-10-09T12:11:12.900Z,33.80
2022-10-09T12:13:50.897Z,34.20
2022-10-09T12:16:47.080Z,33.20
2022-10-09T12:19:19.597Z,33.70
2022-10-09T12:21:52.312Z,32.80
2022-10-09T12:24:26.174Z,32.80
2022-10-09T12:26:56.991Z,32.70
2022-10-09T12:29:32.744Z,32.60
2022-10-09T12:32:06.034Z,31.90
2022-10-09T12:34:38.333Z,32.10
2022-10-09T12:37:18.705Z,32.30
2022-10-09T12:39:49.860Z,31.90
2022-10-09T12:42:24.298Z,31.90
2022-10-09T12:44:55.269Z,31.20
2022-10-09T12:47:26.853Z,31.30
2022-10-09T12:49:59.787Z,30.60
2022-10-09T12:52:28.115Z,30.70
2022-10-09T12:54:57.626Z,30.60
2022-10-09T12:57:28.040Z,30.10
2022-10-09T12:59:57.537Z,30.20
2022-10-09T13:02:25.794Z,30.10
2022-10-09T13:05:02.176Z,30.30
2022-10-09T13:07:32.493Z,29.80
2022-10-09T13:10:07.156Z,30.10
2022-10-09T13:12:36.109Z,29.80
2022-10-09T13:15:06.063Z,30.00
2022-10-09T13:17:36.314Z,29.70
2022-10-09T13:20:25.562Z,29.70
2022-10-09T13:22:58.556Z,29.70
2022-10-09T13:25:30.918Z,29.70
2022-10-09T13:27:59.100Z,29.50
2022-10-09T13:30:28.343Z,29.70
2022-10-09T13:32:56.627Z,29.50
2022-10-09T13:35:24.949Z,29.60
2022-10-09T13:37:54.119Z,29.60
2022-10-09T13:40:22.588Z,29.50
2022-10-09T13:42:56.624Z,29.50
2022-10-09T13:45:25.359Z,29.30
2022-10-09T13:47:53.528Z,29.70
2022-10-09T13:50:22.283Z,29.20
2022-10-09T13:52:50.474Z,29.30
2022-10-09T13:55:18.716Z,29.30
2022-10-09T13:57:48.292Z,29.40
2022-10-09T14:00:18.271Z,29.10
2022-10-09T14:02:46.405Z,29.20
2022-10-09T14:05:15.923Z,28.50
2022-10-09T14:07:44.054Z,28.50
2022-10-09T14:10:12.325Z,28.80
2022-10-09T14:12:40.800Z,29.40
2022-10-09T14:15:10.918Z,29.50
2022-10-09T14:17:40.387Z,29.60
2022-10-09T14:20:09.219Z,29.80
2022-10-09T14:22:39.754Z,29.90
2022-10-09T14:25:08.979Z,29.90
2022-10-09T14:27:39.273Z,29.80
2022-10-09T14:30:11.006Z,30.00
2022-10-09T14:32:40.487Z,29.80
2022-10-09T14:35:09.152Z,29.40
2022-10-09T14:37:41.613Z,29.50
2022-10-09T14:40:10.474Z,29.50
2022-10-09T14:42:38.773Z,31.00
2022-10-09T14:45:08.110Z,29.90
2022-10-09T14:47:36.348Z,29.90
2022-10-09T14:50:06.477Z,30.00
2022-10-09T14:52:34.604Z,30.00
2022-10-09T14:55:02.736Z,30.20
2022-10-09T14:57:35.173Z,30.10
2022-10-09T15:00:04.781Z,30.10
2022-10-09T15:02:33.252Z,30.30
2022-10-09T15:05:01.488Z,30.20
2022-10-09T15:07:31.979Z,30.20
2022-10-09T15:10:00.147Z,30.10
2022-10-09T15:12:28.222Z,30.10
2022-10-09T15:14:56.491Z,30.20
2022-10-09T15:17:24.569Z,30.20
2022-10-09T15:19:53.984Z,30.40
2022-10-09T15:22:22.053Z,30.30
2022-10-09T15:24:51.805Z,30.30
2022-10-09T15:27:19.908Z,30.40
2022-10-09T15:29:47.980Z,30.70
2022-10-09T15:32:16.070Z,30.90
2022-10-09T15:34:44.211Z,30.90
2022-10-09T15:37:12.379Z,31.00
2022-10-09T15:39:40.615Z,31.20
2022-10-09T15:42:12.797Z,31.50
2022-10-09T15:44:43.415Z,31.90
2022-10-09T15:47:16.607Z,32.20
2022-10-09T15:49:46.565Z,32.30
2022-10-09T15:52:16.231Z,32.50
2022-10-09T15:54:44.443Z,32.90
2022-10-09T15:57:13.967Z,33.10
2022-10-09T15:59:43.855Z,33.40
2022-10-09T16:02:12.619Z,33.60
2022-10-09T16:04:41.149Z,33.80
2022-10-09T16:07:09.617Z,34.20
2022-10-09T16:09:38.513Z,34.40
2022-10-09T16:12:06.659Z,34.70
2022-10-09T16:14:38.173Z,34.90
2022-10-09T16:17:23.020Z,35.20
2022-10-09T16:19:51.339Z,35.60
2022-10-09T16:22:20.100Z,35.50
2022-10-09T16:24:51.089Z,35.60
2022-10-09T16:27:21.544Z,35.80
2022-10-09T16:29:58.027Z,36.00
2022-10-09T16:32:26.195Z,36.10
2022-10-09T16:34:54.612Z,36.20
2022-10-09T16:37:22.770Z,36.20
2022-10-09T16:39:51.139Z,36.50
2022-10-09T16:42:19.224Z,36.50
2022-10-09T16:44:51.446Z,36.70
2022-10-09T16:47:20.944Z,36.80
2022-10-09T16:49:49.410Z,37.00
2022-10-09T16:52:17.517Z,37.10
2022-10-09T16:54:45.895Z,37.30
2022-10-09T16:57:13.963Z,37.50
2022-10-09T16:59:42.118Z,37.70
2022-10-09T17:02:12.221Z,37.90
2022-10-09T17:04:41.775Z,38.20
2022-10-09T17:07:11.569Z,38.70
2022-10-09T17:09:40.561Z,38.70
2022-10-09T17:12:10.402Z,39.00
2022-10-09T17:14:38.583Z,39.30
2022-10-09T17:17:08.604Z,39.50
2022-10-09T17:19:39.516Z,39.90
2022-10-09T17:22:09.271Z,40.10
2022-10-09T17:24:37.438Z,40.50
2022-10-09T17:27:09.736Z,40.70
2022-10-09T17:29:38.278Z,41.00
2022-10-09T17:32:09.287Z,41.30
2022-10-09T17:34:42.946Z,41.60
2022-10-09T17:37:13.046Z,41.90
2022-10-09T17:39:45.540Z,42.30
2022-10-09T17:42:15.947Z,42.50
2022-10-09T17:44:44.175Z,42.80
2022-10-09T17:47:12.393Z,42.90
2022-10-09T17:49:40.523Z,43.10
2022-10-09T17:52:08.745Z,43.20
2022-10-09T17:54:38.243Z,43.40
2022-10-09T17:57:07.096Z,43.60
2022-10-09T17:59:35.428Z,43.60
2022-10-09T18:02:03.534Z,43.90
2022-10-09T18:04:34.257Z,44.00
2022-10-09T18:07:02.378Z,44.30
2022-10-09T18:09:30.725Z,44.50
2022-10-09T18:12:00.454Z,44.90
2022-10-09T18:14:29.530Z,45.30
2022-10-09T18:16:59.710Z,45.30
2022-10-09T18:19:28.871Z,45.70
2022-10-09T18:21:57.256Z,45.80
2022-10-09T18:24:25.350Z,46.00
2022-10-09T18:26:53.446Z,46.20
2022-10-09T18:29:24.488Z,46.40
2022-10-09T18:31:55.997Z,46.90
2022-10-09T18:34:26.626Z,47.10
2022-10-09T18:36:55.435Z,47.30
2022-10-09T18:39:25.135Z,47.60
2022-10-09T18:41:53.949Z,47.90
2022-10-09T18:44:25.091Z,48.00
2022-10-09T18:46:57.016Z,48.50
2022-10-09T18:49:28.539Z,48.70
2022-10-09T18:52:00.610Z,48.80
2022-10-09T18:54:30.970Z,49.10
2022-10-09T18:56:59.356Z,49.20
2022-10-09T18:59:29.421Z,49.20
2022-10-09T19:01:57.536Z,49.60
2022-10-09T19:04:25.711Z,49.50
2022-10-09T19:06:55.400Z,49.60
2022-10-09T19:09:23.911Z,50.00
2022-10-09T19:11:55.399Z,50.00
2022-10-09T19:14:23.811Z,50.20
2022-10-09T19:16:53.365Z,50.30
2022-10-09T19:19:21.764Z,50.70
2022-10-09T19:21:50.159Z,50.80
2022-10-09T19:24:18.309Z,51.10
2022-10-09T19:26:46.407Z,51.10
2022-10-09T19:29:14.487Z,51.20
2022-10-09T19:31:42.643Z,51.30
2022-10-09T19:34:13.575Z,51.20
2022-10-09T19:36:43.123Z,51.60
2022-10-09T19:39:14.280Z,51.40
2022-10-09T19:41:43.285Z,51.60
2022-10-09T19:44:14.889Z,51.80
2022-10-09T19:46:43.040Z,52.00
2022-10-09T19:49:13.797Z,52.10
2022-10-09T19:51:41.880Z,52.30
2022-10-09T19:54:11.187Z,52.30
2022-10-09T19:56:41.283Z,52.50
2022-10-09T19:59:11.611Z,52.60
2022-10-09T20:01:40.453Z,52.80
2022-10-09T20:04:14.918Z,53.20
2022-10-09T20:06:44.529Z,53.00
2022-10-09T20:09:13.451Z,52.80
2022-10-09T20:11:42.199Z,52.90
2022-10-09T20:14:10.943Z,53.00
2022-10-09T20:16:39.673Z,53.10
2022-10-09T20:19:08.034Z,53.10
2022-10-09T20:21:37.550Z,53.20
2022-10-09T20:24:07.369Z,53.40
2022-10-09T20:26:37.706Z,53.30
2022-10-09T20:29:09.056Z,53.30
2022-10-09T20:31:38.375Z,53.30
2022-10-09T20:34:06.543Z,53.30
2022-10-09T20:36:39.063Z,53.40
2022-10-09T20:39:08.903Z,53.70
2022-10-09T20:41:38.337Z,53.70
2022-10-09T20:44:07.415Z,53.70
2022-10-09T20:46:37.523Z,53.70
2022-10-09T20:49:07.542Z,53.90
2022-10-09T20:51:37.443Z,53.90
2022-10-09T20:54:06.873Z,53.80
2022-10-09T20:56:35.573Z,53.90
2022-10-09T20:59:04.150Z,53.90
2022-10-09T21:01:32.593Z,54.00
2022-10-09T21:04:03.622Z,54.10
2022-10-09T21:06:32.851Z,54.30
2022-10-09T21:09:02.645Z,54.50
2022-10-09T21:11:32.296Z,54.70
2022-10-09T21:14:00.348Z,54.70
2022-10-09T21:16:28.698Z,54.70
2022-10-09T21:18:58.498Z,54.60
2022-10-09T21:21:29.818Z,54.80
2022-10-09T21:23:59.316Z,54.80
2022-10-09T21:26:32.000Z,54.90
2022-10-09T21:29:00.356Z,55.20
2022-10-09T21:31:31.397Z,54.90
2022-10-09T21:34:00.601Z,55.10
2022-10-09T21:36:35.428Z,55.10
2022-10-09T21:39:05.880Z,55.60
2022-10-09T21:41:35.931Z,55.30
2022-10-09T21:44:04.575Z,55.50
2022-10-09T21:46:32.719Z,55.40
2022-10-09T21:49:03.242Z,55.50
2022-10-09T21:51:34.989Z,55.70
2022-10-09T21:54:03.518Z,55.90
2022-10-09T21:56:31.688Z,56.10
2022-10-09T21:59:01.156Z,56.30
2022-10-09T22:01:29.464Z,56.60
2022-10-09T22:03:57.763Z,56.80
2022-10-09T22:06:25.937Z,57.00
2022-10-09T22:08:54.038Z,57.10
2022-10-09T22:11:22.141Z,57.20
2022-10-09T22:13:50.264Z,57.10
2022-10-09T22:16:19.713Z,57.20
2022-10-09T22:18:47.809Z,57.40
2022-10-09T22:21:16.698Z,57.20
2022-10-09T22:23:52.235Z,57.20
2022-10-09T22:26:22.971Z,57.20
2022-10-09T22:28:51.620Z,57.30
2022-10-09T22:31:22.985Z,57.30
2022-10-09T22:33:52.327Z,57.70
2022-10-09T22:36:22.251Z,57.50
2022-10-09T22:38:50.381Z,57.40
2022-10-09T22:41:20.514Z,57.30
2022-10-09T22:43:50.321Z,57.50
2022-10-09T22:46:22.283Z,57.80
2022-10-09T22:48:50.699Z,57.90
2022-10-09T22:51:20.441Z,58.00
2022-10-09T22:53:48.919Z,58.20
2022-10-09T22:56:19.048Z,58.00
2022-10-09T22:58:48.013Z,58.00
2022-10-09T23:01:18.846Z,58.00
2022-10-09T23:03:48.377Z,57.90
2022-10-09T23:06:18.640Z,58.00
2022-10-09T23:08:48.660Z,58.60
2022-10-09T23:11:18.030Z,58.00
2022-10-09T23:13:47.300Z,58.10
2022-10-09T23:16:16.471Z,58.30
2022-10-09T23:18:45.195Z,58.50
2022-10-09T23:21:16.395Z,58.50
2022-10-09T23:23:46.051Z,58.50
2022-10-09T23:26:16.898Z,58.40
2022-10-09T23:28:49.482Z,58.50
2022-10-09T23:31:17.655Z,58.40
2022-10-09T23:33:46.656Z,58.30
2022-10-09T23:36:18.142Z,58.30
2022-10-09T23:38:48.052Z,58.50
2022-10-09T23:41:19.338Z,58.30
2022-10-09T23:43:48.945Z,58.50
2022-10-09T23:46:19.854Z,58.60
2022-10-09T23:48:49.015Z,58.50
2022-10-09T23:51:19.788Z,58.30
2022-10-09T23:53:48.923Z,58.50
2022-10-09T23:56:18.805Z,58.50
2022-10-09T23:58:47.340Z,58.80
